createdAt,value
2018-11-20T00:00:41.853Z,0.00
2018-11-20T00:01:41.823Z,0.00
2018-11-20T00:02:41.764Z,0.00
2018-11-20T00:03:41.718Z,0.00
2018-11-20T00:04:41.703Z,0.00
2018-11-20T00:05:41.633Z,0.00
2018-11-20T00:06:41.600Z,0.00
2018-11-20T00:07:41.550Z,0.00
2018-11-20T00:08:41.516Z,0.00
2018-11-20T00:09:41.463Z,0.00
2018-11-20T00:10:41.479Z,0.00
2018-11-20T00:11:41.363Z,0.00
2018-11-20T00:12:41.346Z,0.00
2018-11-20T00:13:41.293Z,0.00
2018-11-20T00:14:41.227Z,0.00
2018-11-20T00:15:41.190Z,0.00
2018-11-20T00:16:41.237Z,0.00
2018-11-20T00:17:41.091Z,0.00
2018-11-20T00:18:41.048Z,0.00
2018-11-20T00:19:40.974Z,0.00
2018-11-20T00:20:40.958Z,0.00
2018-11-20T00:21:40.910Z,0.00
2018-11-20T00:22:40.847Z,0.00
2018-11-20T00:23:40.818Z,0.00
2018-11-20T00:24:40.781Z,0.00
2018-11-20T00:25:40.715Z,0.00
2018-11-20T00:26:40.684Z,0.00
2018-11-20T00:27:40.617Z,0.00
2018-11-20T00:28:40.600Z,0.00
2018-11-20T00:29:40.528Z,0.00
2018-11-20T00:30:40.486Z,0.00
2018-11-20T00:31:40.441Z,0.00
2018-11-20T00:32:40.395Z,0.00
2018-11-20T00:33:40.351Z,0.00
2018-11-20T00:34:40.310Z,0.00
2018-11-20T00:35:40.250Z,0.00
2018-11-20T00:36:40.221Z,0.00
2018-11-20T00:37:40.171Z,0.00
2018-11-20T00:38:40.138Z,0.00
2018-11-20T00:39:40.082Z,0.00
2018-11-20T00:40:40.025Z,0.00
2018-11-20T00:41:39.983Z,0.00
2018-11-20T00:42:40.014Z,0.00
2018-11-20T00:43:39.893Z,0.00
2018-11-20T00:44:39.862Z,0.00
2018-11-20T00:45:39.809Z,0.00
2018-11-20T00:46:39.768Z,0.00
2018-11-20T00:47:39.714Z,0.00
2018-11-20T00:48:39.669Z,0.00
2018-11-20T00:49:39.718Z,0.00
2018-11-20T00:50:39.575Z,0.00
2018-11-20T00:51:39.539Z,0.00
2018-11-20T00:52:39.504Z,0.00
2018-11-20T00:53:39.449Z,0.00
2018-11-20T00:54:39.403Z,0.00
2018-11-20T00:55:39.376Z,0.00
2018-11-20T00:56:39.313Z,0.00
2018-11-20T00:57:39.261Z,0.00
2018-11-20T00:58:39.214Z,0.00
2018-11-20T00:59:39.177Z,0.00
2018-11-20T01:00:39.141Z,0.00
2018-11-20T01:01:39.092Z,0.00
2018-11-20T01:02:39.045Z,0.00
2018-11-20T01:03:39.129Z,0.00
2018-11-20T01:04:38.930Z,0.00
2018-11-20T01:05:38.889Z,0.00
2018-11-20T01:06:38.862Z,0.00
2018-11-20T01:07:38.826Z,0.00
2018-11-20T01:08:38.763Z,0.00
2018-11-20T01:09:38.724Z,0.00
2018-11-20T01:10:38.669Z,0.00
2018-11-20T01:11:38.653Z,0.00
2018-11-20T01:12:38.579Z,0.00
2018-11-20T01:13:38.546Z,0.00
2018-11-20T01:14:38.473Z,0.00
2018-11-20T01:15:38.452Z,0.00
2018-11-20T01:16:38.395Z,0.00
2018-11-20T01:17:38.354Z,0.00
2018-11-20T01:18:38.312Z,0.00
2018-11-20T01:19:38.253Z,0.00
2018-11-20T01:20:38.221Z,0.00
2018-11-20T01:21:38.172Z,0.00
2018-11-20T01:22:38.133Z,0.00
2018-11-20T01:23:38.086Z,0.00
2018-11-20T01:24:38.039Z,0.00
2018-11-20T01:25:38.014Z,0.00
2018-11-20T01:26:37.947Z,0.00
2018-11-20T01:27:37.917Z,0.00
2018-11-20T01:28:37.855Z,0.00
2018-11-20T01:29:37.817Z,0.00
2018-11-20T01:30:37.756Z,0.00
2018-11-20T01:31:37.753Z,0.00
2018-11-20T01:32:37.674Z,0.00
2018-11-20T01:33:37.676Z,0.00
2018-11-20T01:34:37.587Z,0.00
2018-11-20T01:35:37.566Z,0.00
2018-11-20T01:36:37.493Z,0.00
2018-11-20T01:37:37.445Z,0.00
2018-11-20T01:38:37.404Z,0.00
2018-11-20T01:39:37.369Z,0.00
2018-11-20T01:40:37.325Z,0.00
2018-11-20T01:41:37.301Z,0.00
2018-11-20T01:42:37.223Z,0.00
2018-11-20T01:43:37.183Z,0.00
2018-11-20T01:44:37.132Z,0.00
2018-11-20T01:45:37.086Z,0.00
2018-11-20T01:46:37.044Z,0.00
2018-11-20T01:47:37.025Z,0.00
2018-11-20T01:48:36.968Z,0.00
2018-11-20T01:49:36.947Z,0.00
2018-11-20T01:50:36.860Z,0.00
2018-11-20T01:51:36.824Z,0.00
2018-11-20T01:52:36.764Z,0.00
2018-11-20T01:53:36.726Z,0.00
2018-11-20T01:54:36.700Z,0.00
2018-11-20T01:55:36.636Z,0.00
2018-11-20T01:56:36.597Z,0.00
2018-11-20T01:57:36.556Z,0.00
2018-11-20T01:58:36.508Z,0.00
2018-11-20T01:59:36.469Z,0.00
2018-11-20T02:00:36.415Z,0.00
2018-11-20T02:01:36.366Z,0.00
2018-11-20T02:02:36.331Z,0.00
2018-11-20T02:03:36.269Z,0.00
2018-11-20T02:04:36.227Z,0.00
2018-11-20T02:05:36.174Z,0.00
2018-11-20T02:06:36.161Z,0.00
2018-11-20T02:07:36.095Z,0.00
2018-11-20T02:08:36.070Z,0.00
2018-11-20T02:09:36.021Z,0.00
2018-11-20T02:10:35.955Z,0.00
2018-11-20T02:11:35.899Z,0.00
2018-11-20T02:12:35.872Z,0.00
2018-11-20T02:13:35.833Z,0.00
2018-11-20T02:14:35.774Z,0.00
2018-11-20T02:15:35.738Z,0.00
2018-11-20T02:16:35.685Z,0.00
2018-11-20T02:17:35.638Z,0.00
2018-11-20T02:18:35.593Z,0.00
2018-11-20T02:19:35.545Z,0.00
2018-11-20T02:20:35.492Z,0.00
2018-11-20T02:21:35.472Z,0.00
2018-11-20T02:22:35.420Z,0.00
2018-11-20T02:23:35.373Z,0.00
2018-11-20T02:24:35.323Z,0.00
2018-11-20T02:25:35.267Z,0.00
2018-11-20T02:26:35.243Z,0.00
2018-11-20T02:27:35.215Z,0.00
2018-11-20T02:28:35.156Z,0.00
2018-11-20T02:29:35.118Z,0.00
2018-11-20T02:30:35.059Z,0.00
2018-11-20T02:31:35.007Z,0.00
2018-11-20T02:32:34.973Z,0.00
2018-11-20T02:33:34.960Z,0.00
2018-11-20T02:34:34.889Z,0.00
2018-11-20T02:35:34.840Z,0.00
2018-11-20T02:36:34.791Z,0.00
2018-11-20T02:37:34.740Z,0.00
2018-11-20T02:38:34.688Z,0.00
2018-11-20T02:39:34.652Z,0.00
2018-11-20T02:40:34.607Z,0.00
2018-11-20T02:41:34.550Z,0.00
2018-11-20T02:42:34.511Z,0.00
2018-11-20T02:43:34.451Z,0.00
2018-11-20T02:44:34.413Z,0.00
2018-11-20T02:45:34.368Z,0.00
2018-11-20T02:46:34.323Z,0.00
2018-11-20T02:47:34.269Z,0.00
2018-11-20T02:48:34.226Z,0.00
2018-11-20T02:49:34.184Z,0.00
2018-11-20T02:50:34.148Z,0.00
2018-11-20T02:51:34.197Z,0.00
2018-11-20T02:52:34.052Z,0.00
2018-11-20T02:53:34.007Z,0.00
2018-11-20T02:54:33.952Z,0.00
2018-11-20T02:55:33.934Z,0.00
2018-11-20T02:56:33.869Z,0.00
2018-11-20T02:57:33.860Z,0.00
2018-11-20T02:58:33.788Z,0.00
2018-11-20T02:59:33.739Z,0.00
2018-11-20T03:00:33.691Z,0.00
2018-11-20T03:01:33.657Z,0.00
2018-11-20T03:02:33.607Z,0.00
2018-11-20T03:03:33.593Z,0.00
2018-11-20T03:04:33.512Z,0.00
2018-11-20T03:05:33.478Z,0.00
2018-11-20T03:06:33.425Z,0.00
2018-11-20T03:07:33.408Z,0.00
2018-11-20T03:08:33.361Z,0.00
2018-11-20T03:09:33.294Z,0.00
2018-11-20T03:10:33.249Z,0.00
2018-11-20T03:11:33.208Z,0.00
2018-11-20T03:12:33.165Z,0.00
2018-11-20T03:13:33.100Z,0.00
2018-11-20T03:14:33.068Z,0.00
2018-11-20T03:15:33.023Z,0.00
2018-11-20T03:16:32.972Z,0.00
2018-11-20T03:17:32.924Z,0.00
2018-11-20T03:18:32.880Z,0.00
2018-11-20T03:19:32.829Z,0.00
2018-11-20T03:20:32.785Z,0.00
2018-11-20T03:21:32.759Z,0.00
2018-11-20T03:22:32.694Z,0.00
2018-11-20T03:23:32.644Z,0.00
2018-11-20T03:24:32.613Z,0.00
2018-11-20T03:25:32.560Z,0.00
2018-11-20T03:26:32.512Z,0.00
2018-11-20T03:27:32.465Z,0.00
2018-11-20T03:28:32.455Z,0.00
2018-11-20T03:29:32.384Z,0.00
2018-11-20T03:30:32.354Z,0.00
2018-11-20T03:31:32.291Z,0.00
2018-11-20T03:32:32.256Z,0.00
2018-11-20T03:33:32.212Z,0.00
2018-11-20T03:34:32.150Z,0.00
2018-11-20T03:35:32.133Z,0.00
2018-11-20T03:36:32.071Z,0.00
2018-11-20T03:37:32.023Z,0.00
2018-11-20T03:38:31.977Z,0.00
2018-11-20T03:39:31.932Z,0.00
2018-11-20T03:40:31.876Z,0.00
2018-11-20T03:41:31.862Z,0.00
2018-11-20T03:42:31.796Z,0.00
2018-11-20T03:43:31.747Z,0.00
2018-11-20T03:44:31.694Z,0.00
2018-11-20T03:45:31.648Z,0.00
2018-11-20T03:46:31.618Z,0.00
2018-11-20T03:47:31.563Z,0.00
2018-11-20T03:48:31.512Z,0.00
2018-11-20T03:49:31.470Z,0.00
2018-11-20T03:50:31.447Z,0.00
2018-11-20T03:51:31.391Z,0.00
2018-11-20T03:52:31.348Z,0.00
2018-11-20T03:53:31.298Z,0.00
2018-11-20T03:54:31.235Z,0.00
2018-11-20T03:55:31.210Z,0.00
2018-11-20T03:56:31.170Z,0.00
2018-11-20T03:57:31.132Z,0.00
2018-11-20T03:58:31.062Z,0.00
2018-11-20T03:59:31.032Z,0.00
2018-11-20T04:00:31.003Z,0.00
2018-11-20T04:01:30.958Z,0.00
2018-11-20T04:02:30.876Z,0.00
2018-11-20T04:03:30.903Z,0.00
2018-11-20T04:04:30.800Z,0.00
2018-11-20T04:05:30.774Z,0.00
2018-11-20T04:06:30.729Z,0.00
2018-11-20T04:07:30.689Z,0.00
2018-11-20T04:08:30.614Z,0.00
2018-11-20T04:09:30.568Z,0.00
2018-11-20T04:10:30.538Z,0.00
2018-11-20T04:11:30.502Z,0.00
2018-11-20T04:12:30.437Z,0.00
2018-11-20T04:13:30.416Z,0.00
2018-11-20T04:14:30.356Z,0.00
2018-11-20T04:15:30.297Z,0.00
2018-11-20T04:16:30.263Z,0.00
2018-11-20T04:17:30.222Z,0.00
2018-11-20T04:18:30.166Z,0.00
2018-11-20T04:19:30.150Z,0.00
2018-11-20T04:20:30.193Z,0.00
2018-11-20T04:21:30.036Z,0.00
2018-11-20T04:22:30.000Z,0.00
2018-11-20T04:23:30.046Z,0.00
2018-11-20T04:24:29.926Z,0.00
2018-11-20T04:25:29.860Z,0.00
2018-11-20T04:26:29.815Z,0.00
2018-11-20T04:27:29.771Z,0.00
2018-11-20T04:28:29.747Z,0.00
2018-11-20T04:29:29.749Z,0.00
2018-11-20T04:30:29.677Z,0.00
2018-11-20T04:31:29.701Z,0.00
2018-11-20T04:32:29.539Z,0.00
2018-11-20T04:33:29.495Z,0.00
2018-11-20T04:34:29.514Z,0.00
2018-11-20T04:35:29.421Z,0.00
2018-11-20T04:36:29.381Z,0.00
2018-11-20T04:37:29.322Z,0.00
2018-11-20T04:38:29.260Z,0.00
2018-11-20T04:39:29.247Z,0.00
2018-11-20T04:40:29.206Z,0.00
2018-11-20T04:41:29.154Z,0.00
2018-11-20T04:42:29.142Z,0.00
2018-11-20T04:43:29.048Z,0.00
2018-11-20T04:44:29.070Z,0.00
2018-11-20T04:45:28.949Z,0.00
2018-11-20T04:46:28.928Z,0.00
2018-11-20T04:47:28.870Z,0.00
2018-11-20T04:48:28.822Z,0.00
2018-11-20T04:49:28.772Z,0.00
2018-11-20T04:50:28.734Z,0.00
2018-11-20T04:51:28.695Z,0.00
2018-11-20T04:52:28.648Z,0.00
2018-11-20T04:53:28.601Z,0.00
2018-11-20T04:54:28.554Z,0.00
2018-11-20T04:55:28.511Z,0.00
2018-11-20T04:56:28.475Z,0.00
2018-11-20T04:57:28.516Z,0.00
2018-11-20T04:58:28.373Z,0.00
2018-11-20T04:59:28.335Z,0.00
2018-11-20T05:00:28.323Z,0.00
2018-11-20T05:01:28.257Z,0.00
2018-11-20T05:02:28.218Z,0.00
2018-11-20T05:03:28.211Z,0.00
2018-11-20T05:04:28.129Z,0.00
2018-11-20T05:05:28.064Z,0.00
2018-11-20T05:06:28.025Z,0.00
2018-11-20T05:07:27.974Z,0.00
2018-11-20T05:08:27.922Z,0.00
2018-11-20T05:09:27.882Z,0.00
2018-11-20T05:10:27.859Z,0.00
2018-11-20T05:11:27.804Z,0.00
2018-11-20T05:12:27.768Z,0.00
2018-11-20T05:13:27.826Z,0.00
2018-11-20T05:14:27.685Z,0.00
2018-11-20T05:15:27.639Z,0.00
2018-11-20T05:16:27.591Z,0.00
2018-11-20T05:17:27.536Z,0.00
2018-11-20T05:18:27.480Z,0.00
2018-11-20T05:19:27.441Z,0.00
2018-11-20T05:20:27.414Z,0.00
2018-11-20T05:21:27.347Z,0.00
2018-11-20T05:22:27.294Z,0.00
2018-11-20T05:23:27.250Z,0.00
2018-11-20T05:24:27.251Z,0.00
2018-11-20T05:25:27.153Z,0.00
2018-11-20T05:26:27.102Z,0.00
2018-11-20T05:27:27.075Z,0.00
2018-11-20T05:28:27.021Z,0.00
2018-11-20T05:29:26.977Z,0.00
2018-11-20T05:30:26.951Z,0.00
2018-11-20T05:31:26.902Z,0.00
2018-11-20T05:32:26.867Z,0.00
2018-11-20T05:33:26.851Z,0.00
2018-11-20T05:34:26.762Z,0.00
2018-11-20T05:35:26.716Z,0.00
2018-11-20T05:36:26.684Z,0.00
2018-11-20T05:37:26.663Z,0.00
2018-11-20T05:38:26.584Z,0.00
2018-11-20T05:39:26.570Z,0.00
2018-11-20T05:40:26.572Z,0.00
2018-11-20T05:41:26.501Z,0.00
2018-11-20T05:42:26.393Z,0.00
2018-11-20T05:43:26.376Z,0.00
2018-11-20T05:44:26.318Z,0.00
2018-11-20T05:45:26.292Z,0.00
2018-11-20T05:46:26.244Z,0.00
2018-11-20T05:47:26.189Z,0.00
2018-11-20T05:48:26.138Z,0.00
2018-11-20T05:49:26.101Z,0.00
2018-11-20T05:50:26.039Z,0.00
2018-11-20T05:51:26.017Z,0.00
2018-11-20T05:52:25.990Z,0.00
2018-11-20T05:53:25.921Z,0.00
2018-11-20T05:54:25.876Z,0.00
2018-11-20T05:55:25.859Z,0.00
2018-11-20T05:56:25.760Z,0.00
2018-11-20T05:57:25.737Z,0.00
2018-11-20T05:58:25.689Z,0.00
2018-11-20T05:59:25.647Z,0.00
2018-11-20T06:00:25.596Z,0.00
2018-11-20T06:01:25.625Z,0.00
2018-11-20T06:02:25.517Z,0.00
2018-11-20T06:03:25.483Z,4.00
2018-11-20T06:04:25.438Z,4.00
2018-11-20T06:05:25.366Z,4.00
2018-11-20T06:06:25.329Z,4.00
2018-11-20T06:07:25.292Z,4.00
2018-11-20T06:08:25.328Z,4.00
2018-11-20T06:09:25.189Z,8.00
2018-11-20T06:10:25.153Z,8.00
2018-11-20T06:11:25.111Z,4.00
2018-11-20T06:12:25.068Z,12.00
2018-11-20T06:13:25.011Z,12.00
2018-11-20T06:14:24.984Z,12.00
2018-11-20T06:15:24.945Z,16.00
2018-11-20T06:16:24.875Z,20.00
2018-11-20T06:17:24.825Z,16.00
2018-11-20T06:18:24.792Z,20.00
2018-11-20T06:19:24.776Z,24.00
2018-11-20T06:20:24.713Z,32.00
2018-11-20T06:21:24.656Z,40.00
2018-11-20T06:22:24.599Z,44.00
2018-11-20T06:23:24.554Z,56.00
2018-11-20T06:24:24.523Z,60.00
2018-11-20T06:25:24.466Z,72.00
2018-11-20T06:26:24.420Z,84.00
2018-11-20T06:27:24.408Z,88.00
2018-11-20T06:28:24.337Z,92.00
2018-11-20T06:29:24.318Z,100.00
2018-11-20T06:30:24.257Z,100.00
2018-11-20T06:31:24.190Z,112.00
2018-11-20T06:32:24.170Z,116.00
2018-11-20T06:33:24.108Z,136.00
2018-11-20T06:34:24.104Z,152.00
2018-11-20T06:35:24.014Z,168.00
2018-11-20T06:36:24.000Z,176.00
2018-11-20T06:37:23.946Z,184.00
2018-11-20T06:38:23.893Z,196.00
2018-11-20T06:39:23.854Z,212.00
2018-11-20T06:40:23.795Z,224.00
2018-11-20T06:41:23.844Z,240.00
2018-11-20T06:42:23.726Z,260.00
2018-11-20T06:43:23.657Z,280.00
2018-11-20T06:44:23.641Z,292.00
2018-11-20T06:45:23.563Z,312.00
2018-11-20T06:46:23.528Z,328.00
2018-11-20T06:47:23.556Z,352.00
2018-11-20T06:48:23.449Z,372.00
2018-11-20T06:49:23.390Z,388.00
2018-11-20T06:50:23.367Z,412.00
2018-11-20T06:51:23.299Z,456.00
2018-11-20T06:52:23.260Z,504.00
2018-11-20T06:53:23.266Z,516.00
2018-11-20T06:54:23.165Z,508.00
2018-11-20T06:55:23.121Z,548.00
2018-11-20T06:56:23.137Z,580.00
2018-11-20T06:57:23.083Z,612.00
2018-11-20T06:58:23.000Z,660.00
2018-11-20T06:59:22.960Z,716.00
2018-11-20T07:00:22.892Z,776.00
2018-11-20T07:01:22.900Z,800.00
2018-11-20T07:02:22.812Z,800.00
2018-11-20T07:03:22.784Z,792.00
2018-11-20T07:04:22.749Z,816.00
2018-11-20T07:05:22.671Z,828.00
2018-11-20T07:06:22.626Z,856.00
2018-11-20T07:07:22.712Z,924.00
2018-11-20T07:08:22.707Z,996.00
2018-11-20T07:09:22.508Z,1052.00
2018-11-20T07:10:22.465Z,1100.00
2018-11-20T07:11:22.415Z,1072.00
2018-11-20T07:12:22.412Z,1068.00
2018-11-20T07:13:22.307Z,1056.00
2018-11-20T07:14:22.299Z,1056.00
2018-11-20T07:15:22.303Z,1044.00
2018-11-20T07:16:22.231Z,1004.00
2018-11-20T07:17:22.138Z,1008.00
2018-11-20T07:18:22.084Z,1056.00
2018-11-20T07:19:22.052Z,1088.00
2018-11-20T07:20:22.009Z,1160.00
2018-11-20T07:21:21.961Z,1228.00
2018-11-20T07:22:21.973Z,1204.00
2018-11-20T07:23:21.859Z,1240.00
2018-11-20T07:24:21.927Z,1304.00
2018-11-20T07:25:21.792Z,1340.00
2018-11-20T07:26:21.738Z,1384.00
2018-11-20T07:27:21.688Z,1408.00
2018-11-20T07:28:21.645Z,1440.00
2018-11-20T07:29:21.642Z,1480.00
2018-11-20T07:30:21.640Z,1524.00
2018-11-20T07:31:21.590Z,1608.00
2018-11-20T07:32:21.459Z,1624.00
2018-11-20T07:33:21.415Z,1680.00
2018-11-20T07:34:21.391Z,1704.00
2018-11-20T07:35:21.330Z,1780.00
2018-11-20T07:36:21.445Z,1864.00
2018-11-20T07:37:21.430Z,1856.00
2018-11-20T07:38:21.233Z,1940.00
2018-11-20T07:39:21.165Z,2004.00
2018-11-20T07:40:21.106Z,2004.00
2018-11-20T07:41:21.073Z,1928.00
2018-11-20T07:42:21.037Z,1940.00
2018-11-20T07:43:21.048Z,1936.00
2018-11-20T07:44:21.002Z,1996.00
2018-11-20T07:45:20.947Z,2016.00
2018-11-20T07:46:20.850Z,2080.00
2018-11-20T07:47:20.795Z,2160.00
2018-11-20T07:48:20.763Z,2172.00
2018-11-20T07:49:20.713Z,2132.00
2018-11-20T07:50:20.658Z,2152.00
2018-11-20T07:51:20.654Z,2156.00
2018-11-20T07:52:20.568Z,2156.00
2018-11-20T07:53:20.535Z,2240.00
2018-11-20T07:54:20.500Z,2200.00
2018-11-20T07:55:20.515Z,2208.00
2018-11-20T07:56:20.491Z,2212.00
2018-11-20T07:57:20.360Z,2228.00
2018-11-20T07:58:20.300Z,2276.00
2018-11-20T07:59:20.260Z,2248.00
2018-11-20T08:00:20.233Z,2264.00
2018-11-20T08:01:20.170Z,2176.00
2018-11-20T08:02:20.167Z,2156.00
2018-11-20T08:03:20.072Z,2300.00
2018-11-20T08:04:20.035Z,2404.00
2018-11-20T08:05:19.993Z,2408.00
2018-11-20T08:06:19.943Z,2396.00
2018-11-20T08:07:19.904Z,2428.00
2018-11-20T08:08:19.892Z,2528.00
2018-11-20T08:09:19.811Z,2688.00
2018-11-20T08:10:19.799Z,2732.00
2018-11-20T08:11:19.732Z,2724.00
2018-11-20T08:12:19.711Z,2760.00
2018-11-20T08:13:20.283Z,2800.00
2018-11-20T08:14:19.601Z,2888.00
2018-11-20T08:15:19.561Z,2992.00
2018-11-20T08:16:19.503Z,2968.00
2018-11-20T08:17:19.466Z,2940.00
2018-11-20T08:18:19.426Z,3028.00
2018-11-20T08:19:19.377Z,2972.00
2018-11-20T08:20:19.332Z,2952.00
2018-11-20T08:21:19.285Z,2948.00
2018-11-20T08:22:19.242Z,2880.00
2018-11-20T08:23:19.196Z,2936.00
2018-11-20T08:24:19.156Z,2972.00
2018-11-20T08:25:19.144Z,2952.00
2018-11-20T08:26:19.314Z,2900.00
2018-11-20T08:27:19.015Z,2972.00
2018-11-20T08:28:18.997Z,2944.00
2018-11-20T08:29:18.928Z,2844.00
2018-11-20T08:30:18.875Z,2860.00
2018-11-20T08:31:18.837Z,2784.00
2018-11-20T08:32:18.794Z,2956.00
2018-11-20T08:33:18.767Z,2980.00
2018-11-20T08:34:18.735Z,3012.00
2018-11-20T08:35:18.728Z,2960.00
2018-11-20T08:36:18.606Z,2932.00
2018-11-20T08:37:18.676Z,2924.00
2018-11-20T08:38:18.520Z,3060.00
2018-11-20T08:39:18.488Z,3220.00
2018-11-20T08:40:18.452Z,3292.00
2018-11-20T08:41:18.391Z,3396.00
2018-11-20T08:42:18.411Z,3640.00
2018-11-20T08:43:18.305Z,3612.00
2018-11-20T08:44:18.307Z,3456.00
2018-11-20T08:45:18.253Z,3456.00
2018-11-20T08:46:18.186Z,3572.00
2018-11-20T08:47:18.147Z,3596.00
2018-11-20T08:48:18.150Z,3764.00
2018-11-20T08:49:18.032Z,3944.00
2018-11-20T08:50:17.986Z,3684.00
2018-11-20T08:51:17.945Z,3768.00
2018-11-20T08:52:17.900Z,3808.00
2018-11-20T08:53:17.878Z,3660.00
2018-11-20T08:54:17.851Z,3760.00
2018-11-20T08:55:17.761Z,3828.00
2018-11-20T08:56:17.745Z,3852.00
2018-11-20T08:57:17.676Z,4216.00
2018-11-20T08:58:17.632Z,4428.00
2018-11-20T08:59:17.587Z,4452.00
2018-11-20T09:00:17.548Z,4680.00
2018-11-20T09:01:17.495Z,4996.00
2018-11-20T09:02:17.477Z,5016.00
2018-11-20T09:03:17.486Z,5032.00
2018-11-20T09:04:17.371Z,5104.00
2018-11-20T09:05:17.352Z,5156.00
2018-11-20T09:06:17.306Z,5312.00
2018-11-20T09:07:17.253Z,5396.00
2018-11-20T09:08:17.193Z,5244.00
2018-11-20T09:09:17.143Z,5196.00
2018-11-20T09:10:17.114Z,5192.00
2018-11-20T09:11:17.065Z,5388.00
2018-11-20T09:12:17.026Z,5660.00
2018-11-20T09:13:16.967Z,5940.00
2018-11-20T09:14:16.933Z,6248.00
2018-11-20T09:15:16.898Z,6596.00
2018-11-20T09:16:16.844Z,7048.00
2018-11-20T09:17:16.796Z,7268.00
2018-11-20T09:18:16.767Z,7552.00
2018-11-20T09:19:16.713Z,7848.00
2018-11-20T09:20:16.710Z,7540.00
2018-11-20T09:21:16.695Z,7456.00
2018-11-20T09:22:16.576Z,7124.00
2018-11-20T09:23:16.542Z,6396.00
2018-11-20T09:24:16.496Z,5780.00
2018-11-20T09:25:16.470Z,5600.00
2018-11-20T09:26:16.404Z,5784.00
2018-11-20T09:27:16.359Z,6060.00
2018-11-20T09:28:16.312Z,6084.00
2018-11-20T09:29:16.263Z,5864.00
2018-11-20T09:30:16.219Z,5824.00
2018-11-20T09:31:16.178Z,5868.00
2018-11-20T09:32:16.152Z,5892.00
2018-11-20T09:33:16.091Z,5928.00
2018-11-20T09:34:16.075Z,5936.00
2018-11-20T09:35:16.161Z,5928.00
2018-11-20T09:36:15.956Z,6356.00
2018-11-20T09:37:15.941Z,6780.00
2018-11-20T09:38:15.871Z,6752.00
2018-11-20T09:39:15.843Z,6748.00
2018-11-20T09:40:15.800Z,6676.00
2018-11-20T09:41:15.751Z,6384.00
2018-11-20T09:42:15.743Z,6216.00
2018-11-20T09:43:15.674Z,6292.00
2018-11-20T09:44:15.604Z,6340.00
2018-11-20T09:45:15.593Z,6340.00
2018-11-20T09:46:15.528Z,6496.00
2018-11-20T09:47:15.500Z,6940.00
2018-11-20T09:48:15.442Z,7160.00
2018-11-20T09:49:15.412Z,7188.00
2018-11-20T09:50:15.361Z,7388.00
2018-11-20T09:51:15.340Z,7996.00
2018-11-20T09:52:15.279Z,8232.00
2018-11-20T09:53:15.224Z,8320.00
2018-11-20T09:54:15.243Z,8240.00
2018-11-20T09:55:15.118Z,7776.00
2018-11-20T09:56:15.094Z,7540.00
2018-11-20T09:57:15.041Z,7264.00
2018-11-20T09:58:14.991Z,7176.00
2018-11-20T09:59:15.005Z,6644.00
2018-11-20T10:00:14.897Z,6132.00
2018-11-20T10:01:14.890Z,6032.00
2018-11-20T10:02:14.816Z,6036.00
2018-11-20T10:03:14.766Z,5708.00
2018-11-20T10:04:14.725Z,5528.00
2018-11-20T10:05:14.698Z,5588.00
2018-11-20T10:06:14.650Z,5712.00
2018-11-20T10:07:14.607Z,5860.00
2018-11-20T10:08:14.565Z,5976.00
2018-11-20T10:09:14.519Z,6156.00
2018-11-20T10:10:14.505Z,6264.00
2018-11-20T10:11:14.429Z,6344.00
2018-11-20T10:12:14.379Z,6256.00
2018-11-20T10:13:14.354Z,6248.00
2018-11-20T10:14:14.425Z,6320.00
2018-11-20T10:15:14.290Z,6432.00
2018-11-20T10:16:14.218Z,6208.00
2018-11-20T10:17:14.209Z,6160.00
2018-11-20T10:18:14.127Z,6384.00
2018-11-20T10:19:14.096Z,6448.00
2018-11-20T10:20:14.061Z,6460.00
2018-11-20T10:21:14.015Z,6252.00
2018-11-20T10:22:13.995Z,6080.00
2018-11-20T10:23:13.902Z,5768.00
2018-11-20T10:24:13.843Z,5368.00
2018-11-20T10:25:13.852Z,5368.00
2018-11-20T10:26:13.933Z,5348.00
2018-11-20T10:27:13.754Z,5244.00
2018-11-20T10:28:13.689Z,5172.00
2018-11-20T10:29:13.646Z,5108.00
2018-11-20T10:30:13.625Z,5356.00
2018-11-20T10:31:13.543Z,5384.00
2018-11-20T10:32:13.532Z,5244.00
2018-11-20T10:33:13.488Z,5108.00
2018-11-20T10:34:13.443Z,4880.00
2018-11-20T10:35:13.370Z,4712.00
2018-11-20T10:36:13.326Z,4780.00
2018-11-20T10:37:13.296Z,4748.00
2018-11-20T10:38:13.229Z,4644.00
2018-11-20T10:39:13.195Z,4676.00
2018-11-20T10:40:13.176Z,4912.00
2018-11-20T10:41:13.128Z,4876.00
2018-11-20T10:42:13.063Z,4756.00
2018-11-20T10:43:13.027Z,4892.00
2018-11-20T10:44:13.167Z,5160.00
2018-11-20T10:45:12.939Z,5320.00
2018-11-20T10:46:12.958Z,5360.00
2018-11-20T10:47:12.836Z,5636.00
2018-11-20T10:48:12.798Z,5740.00
2018-11-20T10:49:12.752Z,5704.00
2018-11-20T10:50:12.711Z,5624.00
2018-11-20T10:51:12.686Z,5732.00
2018-11-20T10:52:12.631Z,5672.00
2018-11-20T10:53:12.718Z,5592.00
2018-11-20T10:54:12.556Z,5580.00
2018-11-20T10:55:12.512Z,6224.00
2018-11-20T10:56:12.457Z,6524.00
2018-11-20T10:57:12.409Z,6828.00
2018-11-20T10:58:12.376Z,7232.00
2018-11-20T10:59:12.335Z,7368.00
2018-11-20T11:00:12.286Z,7396.00
2018-11-20T11:01:12.257Z,7572.00
2018-11-20T11:02:12.180Z,7696.00
2018-11-20T11:03:12.146Z,7852.00
2018-11-20T11:04:12.173Z,7900.00
2018-11-20T11:05:12.083Z,7724.00
2018-11-20T11:06:12.100Z,7344.00
2018-11-20T11:07:12.288Z,6952.00
2018-11-20T11:08:12.011Z,6880.00
2018-11-20T11:09:11.885Z,6708.00
2018-11-20T11:10:11.845Z,6668.00
2018-11-20T11:11:11.777Z,6520.00
2018-11-20T11:12:11.925Z,6264.00
2018-11-20T11:13:11.704Z,5796.00
2018-11-20T11:14:11.674Z,5408.00
2018-11-20T11:15:11.622Z,5112.00
2018-11-20T11:16:11.649Z,4800.00
2018-11-20T11:17:11.528Z,4536.00
2018-11-20T11:18:11.527Z,4180.00
2018-11-20T11:19:11.454Z,3712.00
2018-11-20T11:20:11.493Z,3312.00
2018-11-20T11:21:11.511Z,3348.00
2018-11-20T11:22:11.323Z,3396.00
2018-11-20T11:23:11.273Z,3208.00
2018-11-20T11:24:11.223Z,3116.00
2018-11-20T11:25:11.203Z,3060.00
2018-11-20T11:26:11.134Z,2972.00
2018-11-20T11:27:11.128Z,2644.00
2018-11-20T11:28:11.071Z,2488.00
2018-11-20T11:29:11.549Z,2368.00
2018-11-20T11:30:10.981Z,2420.00
2018-11-20T11:31:10.952Z,2264.00
2018-11-20T11:32:10.885Z,2348.00
2018-11-20T11:33:10.847Z,2468.00
2018-11-20T11:34:10.795Z,2580.00
2018-11-20T11:35:10.761Z,2584.00
2018-11-20T11:36:10.698Z,2616.00
2018-11-20T11:37:10.658Z,2684.00
2018-11-20T11:38:10.686Z,2760.00
2018-11-20T11:39:10.574Z,2824.00
2018-11-20T11:40:10.502Z,2940.00
2018-11-20T11:41:10.518Z,3028.00
2018-11-20T11:42:10.424Z,3168.00
2018-11-20T11:43:10.384Z,3296.00
2018-11-20T11:44:10.329Z,3448.00
2018-11-20T11:45:10.286Z,3656.00
2018-11-20T11:46:10.241Z,3908.00
2018-11-20T11:47:10.207Z,4016.00
2018-11-20T11:48:10.224Z,4132.00
2018-11-20T11:49:10.114Z,4320.00
2018-11-20T11:50:10.063Z,4400.00
2018-11-20T11:51:10.027Z,4468.00
2018-11-20T11:52:09.982Z,4436.00
2018-11-20T11:53:09.940Z,4504.00
2018-11-20T11:54:09.886Z,4728.00
2018-11-20T11:55:09.935Z,4776.00
2018-11-20T11:56:09.806Z,4556.00
2018-11-20T11:57:09.756Z,4364.00
2018-11-20T11:58:09.729Z,4488.00
2018-11-20T11:59:09.681Z,4404.00
2018-11-20T12:00:09.632Z,4520.00
2018-11-20T12:01:09.571Z,4400.00
2018-11-20T12:03:09.497Z,4112.00
2018-11-20T12:04:30.447Z,3968.00
2018-11-20T12:05:09.421Z,3780.00
2018-11-20T12:06:09.404Z,3744.00
2018-11-20T12:07:09.330Z,3744.00
2018-11-20T12:08:09.268Z,3756.00
2018-11-20T12:09:09.216Z,3552.00
2018-11-20T12:10:09.177Z,3620.00
2018-11-20T12:11:09.124Z,3884.00
2018-11-20T12:12:09.092Z,3860.00
2018-11-20T12:13:09.058Z,4048.00
2018-11-20T12:14:08.998Z,4228.00
2018-11-20T12:15:08.952Z,3992.00
2018-11-20T12:16:08.902Z,4552.00
2018-11-20T12:17:08.863Z,4632.00
2018-11-20T12:18:08.808Z,4980.00
2018-11-20T12:19:08.776Z,5172.00
2018-11-20T12:20:08.738Z,5048.00
2018-11-20T12:21:08.687Z,5112.00
2018-11-20T12:22:08.642Z,5280.00
2018-11-20T12:23:08.593Z,5504.00
2018-11-20T12:24:08.555Z,5660.00
2018-11-20T12:25:08.521Z,6292.00
2018-11-20T12:26:08.454Z,6316.00
2018-11-20T12:27:09.331Z,6568.00
2018-11-20T12:28:08.392Z,7080.00
2018-11-20T12:29:08.350Z,7356.00
2018-11-20T12:30:08.290Z,7596.00
2018-11-20T12:31:09.418Z,7576.00
2018-11-20T12:32:08.524Z,8524.00
2018-11-20T12:33:08.156Z,8660.00
2018-11-20T12:34:08.168Z,10084.00
2018-11-20T12:35:08.083Z,11016.00
2018-11-20T12:36:08.026Z,11504.00
2018-11-20T12:37:07.976Z,12164.00
2018-11-20T12:38:08.843Z,12280.00
2018-11-20T12:39:07.905Z,13216.00
2018-11-20T12:40:07.877Z,12480.00
2018-11-20T12:41:09.712Z,13108.00
2018-11-20T12:42:07.768Z,13160.00